Time;durP1;ratioP1;P1;durP2;ratioP2;P2;SDS_P1;SDS_P2;PMS_P1;PMS_P2;Temp;Humidity;BMP_temperature;BMP_pressure;BME280_temperature;BME280_humidity;BME280_pressure;Samples;Min_cycle;Max_cycle;Signal;HPM_P1;HPM_P2
2021/03/08 00:00:57;;;;;;;28.25;21.88;;;6.00;93.30;;;;;;2079586;28;20057;-81
2021/03/08 00:01:58;;;;;;;28.70;21.38;;;6.00;93.40;;;;;;2088688;28;20016;-79
2021/03/08 00:02:59;;;;;;;28.92;22.05;;;6.00;93.60;;;;;;2096929;28;20040;-80
2021/03/08 00:03:59;;;;;;;30.35;22.73;;;6.00;93.60;;;;;;2080715;28;20021;-79
2021/03/08 00:05:00;;;;;;;28.38;21.88;;;6.00;93.70;;;;;;2088878;28;20045;-79
2021/03/08 00:06:01;;;;;;;32.42;23.35;;;6.00;93.50;;;;;;2088556;28;20025;-79
2021/03/08 00:07:01;;;;;;;29.77;22.88;;;6.00;93.60;;;;;;2088512;28;20135;-79
2021/03/08 00:08:03;;;;;;;31.90;23.60;;;6.00;93.70;;;;;;2087319;28;20047;-80
2021/03/08 00:09:03;;;;;;;34.22;23.80;;;6.00;93.80;;;;;;2088776;28;20029;-79
2021/03/08 00:10:05;;;;;;;31.58;22.60;;;6.00;93.90;;;;;;2080267;28;20555;-79
2021/03/08 00:11:06;;;;;;;27.30;21.73;;;6.00;93.90;;;;;;2088793;28;20082;-79
2021/03/08 00:12:08;;;;;;;28.80;21.52;;;6.00;93.90;;;;;;2088802;28;20387;-79
2021/03/08 00:13:08;;;;;;;32.00;22.73;;;6.00;93.90;;;;;;2089103;28;20036;-79
2021/03/08 00:14:09;;;;;;;31.35;21.00;;;6.00;93.80;;;;;;2080417;28;20025;-80
2021/03/08 00:15:11;;;;;;;32.30;22.58;;;6.00;93.80;;;;;;2088126;28;20025;-80
2021/03/08 00:16:11;;;;;;;28.98;21.55;;;6.00;93.90;;;;;;2089193;28;20029;-79
2021/03/08 00:17:12;;;;;;;27.40;21.10;;;6.00;93.80;;;;;;2088055;28;20035;-79
2021/03/08 00:18:13;;;;;;;29.48;20.50;;;6.10;94.00;;;;;;2072026;28;20108;-79
2021/03/08 00:19:13;;;;;;;29.40;22.08;;;6.10;93.60;;;;;;2085415;28;20112;-79
2021/03/08 00:20:16;;;;;;;32.25;22.83;;;6.00;93.60;;;;;;2088535;28;20025;-79
2021/03/08 00:21:17;;;;;;;30.75;21.50;;;6.10;93.80;;;;;;2088513;28;20056;-79
2021/03/08 00:22:18;;;;;;;32.50;22.50;;;6.10;93.70;;;;;;2089015;28;20044;-80
2021/03/08 00:23:19;;;;;;;28.50;20.70;;;6.10;93.70;;;;;;2080573;28;20371;-80
2021/03/08 00:24:19;;;;;;;27.13;21.80;;;6.10;93.70;;;;;;2087038;28;20017;-79
2021/03/08 00:25:28;;;;;;;26.52;21.38;;;6.10;93.60;;;;;;2088011;28;20021;-79
2021/03/08 00:26:29;;;;;;;28.85;21.58;;;6.10;93.60;;;;;;2095169;28;20025;-79
2021/03/08 00:27:29;;;;;;;28.50;21.95;;;6.10;93.40;;;;;;2087379;28;20526;-78
2021/03/08 00:28:30;;;;;;;29.15;22.58;;;6.10;93.40;;;;;;2086705;28;20021;-80
2021/03/08 00:29:31;;;;;;;31.50;22.98;;;6.10;93.30;;;;;;2086185;28;20041;-79
2021/03/08 00:30:32;;;;;;;31.90;22.27;;;6.10;93.10;;;;;;2077534;28;20030;-80
2021/03/08 00:31:32;;;;;;;30.33;21.63;;;6.10;93.00;;;;;;2086675;28;20029;-84
2021/03/08 00:32:33;;;;;;;28.10;21.17;;;6.10;93.00;;;;;;2086785;28;20079;-79
2021/03/08 00:33:34;;;;;;;27.77;21.38;;;6.10;93.10;;;;;;2087127;28;20104;-79
2021/03/08 00:34:36;;;;;;;27.75;21.40;;;6.10;93.20;;;;;;2087173;28;20638;-83
2021/03/08 00:35:37;;;;;;;30.52;21.77;;;6.10;93.40;;;;;;2101419;28;20024;-81
2021/03/08 00:36:37;;;;;;;30.38;22.27;;;6.10;93.40;;;;;;2088575;28;20034;-82
2021/03/08 00:37:39;;;;;;;29.63;22.55;;;6.00;93.40;;;;;;2094594;28;20029;-82
2021/03/08 00:38:39;;;;;;;32.35;22.80;;;6.00;93.60;;;;;;2089689;28;20086;-81
2021/03/08 00:39:41;;;;;;;27.65;21.50;;;6.10;93.70;;;;;;2087767;28;20512;-83
2021/03/08 00:40:42;;;;;;;30.45;22.63;;;6.10;93.70;;;;;;2094386;28;20025;-81
2021/03/08 00:41:42;;;;;;;36.60;23.25;;;6.10;93.80;;;;;;2087360;28;20025;-79
2021/03/08 00:42:43;;;;;;;29.08;22.60;;;6.10;93.80;;;;;;2095766;28;20035;-82
2021/03/08 00:43:44;;;;;;;29.08;21.60;;;6.00;93.90;;;;;;2086976;28;20028;-80
2021/03/08 00:44:44;;;;;;;29.60;21.38;;;6.10;93.90;;;;;;2089636;28;20026;-79
2021/03/08 00:45:45;;;;;;;27.77;21.33;;;6.10;93.80;;;;;;2083701;28;20025;-80
2021/03/08 00:46:46;;;;;;;31.25;22.90;;;6.10;93.90;;;;;;2081737;28;20034;-81
2021/03/08 00:47:46;;;;;;;33.05;22.98;;;6.10;93.90;;;;;;2094799;28;20150;-82
2021/03/08 00:48:47;;;;;;;31.58;22.88;;;6.00;93.90;;;;;;2094720;28;20088;-84
2021/03/08 00:49:49;;;;;;;29.08;22.73;;;6.10;93.90;;;;;;2086389;28;20037;-81
2021/03/08 00:50:49;;;;;;;30.85;22.60;;;6.10;93.90;;;;;;2094393;28;20017;-81
2021/03/08 00:51:50;;;;;;;30.45;21.83;;;6.10;93.80;;;;;;2094237;28;20029;-80
2021/03/08 00:52:51;;;;;;;32.30;22.73;;;6.10;93.80;;;;;;2078340;28;20050;-80
2021/03/08 00:53:52;;;;;;;28.50;21.83;;;6.10;93.80;;;;;;2085763;28;20041;-78
2021/03/08 00:54:52;;;;;;;34.85;24.52;;;6.10;93.90;;;;;;2091816;28;20025;-79
2021/03/08 00:55:53;;;;;;;30.75;22.90;;;6.10;94.00;;;;;;2094809;28;20092;-83
2021/03/08 00:56:54;;;;;;;32.88;23.70;;;6.10;94.00;;;;;;2094379;28;20033;-80
2021/03/08 00:57:54;;;;;;;30.55;22.38;;;6.10;93.90;;;;;;2094251;28;20060;-82
2021/03/08 00:58:55;;;;;;;30.10;22.83;;;6.10;93.80;;;;;;2095094;28;20032;-81
2021/03/08 00:59:56;;;;;;;33.90;23.05;;;6.00;94.20;;;;;;2095438;28;20036;-79
2021/03/08 01:00:56;;;;;;;28.80;21.83;;;6.00;94.10;;;;;;2095658;28;20099;-78
2021/03/08 01:01:57;;;;;;;33.13;22.77;;;6.00;94.20;;;;;;2093957;28;20005;-83
2021/03/08 01:02:57;;;;;;;28.85;21.98;;;6.00;94.20;;;;;;2084785;28;20025;-81
2021/03/08 01:03:58;;;;;;;31.83;22.88;;;6.00;94.30;;;;;;2087533;28;20021;-80
2021/03/08 01:04:59;;;;;;;31.52;23.52;;;6.00;94.40;;;;;;2071255;28;20022;-82
2021/03/08 01:05:59;;;;;;;31.02;22.55;;;6.00;94.50;;;;;;2084348;28;20044;-79
2021/03/08 01:07:00;;;;;;;32.00;23.38;;;6.00;94.60;;;;;;2089531;28;20053;-79
2021/03/08 01:08:01;;;;;;;34.65;22.90;;;6.00;94.60;;;;;;2083880;28;20030;-78
2021/03/08 01:09:04;;;;;;;31.25;23.30;;;6.00;94.70;;;;;;2084178;28;20021;-79
2021/03/08 01:10:12;;;;;;;33.13;23.65;;;6.00;94.70;;;;;;2078304;28;20029;-80
2021/03/08 01:11:12;;;;;;;31.60;22.90;;;6.00;95.00;;;;;;2092304;28;20044;-78
2021/03/08 01:12:13;;;;;;;35.63;23.08;;;6.00;94.90;;;;;;2081777;28;20018;-79
2021/03/08 01:13:14;;;;;;;30.92;22.85;;;6.00;94.90;;;;;;2091062;28;20693;-80
2021/03/08 01:14:15;;;;;;;31.13;23.08;;;6.00;95.00;;;;;;2088335;28;20140;-80
2021/03/08 01:15:16;;;;;;;31.75;22.67;;;6.00;95.00;;;;;;2080563;28;20053;-80
2021/03/08 01:16:16;;;;;;;32.10;23.95;;;6.00;95.00;;;;;;2080728;28;20037;-80
2021/03/08 01:17:17;;;;;;;33.60;24.30;;;6.00;95.10;;;;;;2083070;28;20025;-80
2021/03/08 01:18:19;;;;;;;32.67;23.27;;;6.00;95.10;;;;;;2089125;28;20028;-80
2021/03/08 01:19:20;;;;;;;31.75;23.30;;;6.00;95.10;;;;;;2075166;28;20583;-80
2021/03/08 01:20:21;;;;;;;33.85;22.92;;;6.00;95.20;;;;;;2074291;28;20025;-79
2021/03/08 01:21:21;;;;;;;34.47;22.73;;;6.00;95.20;;;;;;2079944;28;20040;-79
2021/03/08 01:22:22;;;;;;;33.53;24.45;;;6.00;95.20;;;;;;2075735;28;20018;-79
2021/03/08 01:23:23;;;;;;;29.42;23.65;;;6.00;95.00;;;;;;2080719;28;20143;-80
2021/03/08 01:24:23;;;;;;;31.48;22.90;;;6.00;95.20;;;;;;2071631;28;20026;-79
2021/03/08 01:25:28;;;;;;;33.70;23.95;;;6.00;95.30;;;;;;2072002;28;20101;-80
2021/03/08 01:26:29;;;;;;;34.58;24.65;;;6.00;95.50;;;;;;2071901;28;20530;-79
2021/03/08 01:27:30;;;;;;;32.50;24.60;;;6.00;95.50;;;;;;2070822;28;20033;-80
2021/03/08 01:28:31;;;;;;;33.75;24.10;;;6.00;95.60;;;;;;2074914;28;20105;-81
2021/03/08 01:29:32;;;;;;;31.17;23.65;;;6.00;95.60;;;;;;2069867;28;20120;-80
2021/03/08 01:30:39;;;;;;;34.15;23.20;;;6.00;95.50;;;;;;2069170;28;20018;-80
2021/03/08 01:31:39;;;;;;;34.53;25.15;;;6.00;95.70;;;;;;2078211;28;20037;-79
2021/03/08 01:32:40;;;;;;;31.35;24.65;;;6.00;95.60;;;;;;2077216;28;20085;-82
2021/03/08 01:33:41;;;;;;;40.08;24.60;;;6.00;95.70;;;;;;2082477;28;20053;-80
2021/03/08 01:34:41;;;;;;;35.00;23.88;;;6.00;95.80;;;;;;2085975;28;20120;-82
2021/03/08 01:35:42;;;;;;;36.55;24.17;;;6.00;95.90;;;;;;2081776;28;20524;-79
2021/03/08 01:36:42;;;;;;;33.42;24.83;;;6.00;95.90;;;;;;2084883;28;20503;-79
2021/03/08 01:37:43;;;;;;;34.70;24.67;;;6.00;95.90;;;;;;2079161;28;20018;-78
2021/03/08 01:38:45;;;;;;;30.75;24.60;;;6.00;96.00;;;;;;2070933;28;20022;-78
2021/03/08 01:39:45;;;;;;;37.25;25.85;;;6.00;96.20;;;;;;2071309;28;20032;-80
2021/03/08 01:40:46;;;;;;;31.25;24.17;;;6.00;96.30;;;;;;2079369;28;20017;-79
2021/03/08 01:41:47;;;;;;;33.78;25.33;;;6.00;96.30;;;;;;2078762;28;20503;-79
2021/03/08 01:42:48;;;;;;;37.88;25.67;;;6.00;96.40;;;;;;2070417;28;20499;-79
2021/03/08 01:43:48;;;;;;;34.90;25.10;;;6.00;96.40;;;;;;2079163;28;20025;-79
2021/03/08 01:44:49;;;;;;;34.22;24.33;;;6.00;96.50;;;;;;2087776;28;20025;-79
2021/03/08 01:45:50;;;;;;;38.00;24.38;;;6.00;96.60;;;;;;2079349;28;20100;-78
2021/03/08 01:46:54;;;;;;;36.75;24.95;;;6.00;96.80;;;;;;2087537;28;20096;-79
2021/03/08 01:47:55;;;;;;;36.78;25.10;;;6.00;96.90;;;;;;2087438;28;20076;-79
2021/03/08 01:48:55;;;;;;;35.35;24.35;;;6.00;97.10;;;;;;2079953;28;20056;-79
2021/03/08 01:49:56;;;;;;;33.03;23.55;;;6.00;97.20;;;;;;2079262;28;20065;-79
2021/03/08 01:50:57;;;;;;;35.08;26.00;;;6.00;97.40;;;;;;2087294;28;20031;-79
2021/03/08 01:51:57;;;;;;;35.42;24.23;;;6.00;97.50;;;;;;2070913;28;20488;-78
2021/03/08 01:52:59;;;;;;;37.08;25.50;;;5.90;97.50;;;;;;2071452;28;20033;-79
2021/03/08 01:54:00;;;;;;;32.58;24.15;;;5.90;97.50;;;;;;2079578;28;20022;-79
2021/03/08 01:55:00;;;;;;;34.72;24.77;;;6.00;97.40;;;;;;2086200;28;20403;-79
2021/03/08 01:56:03;;;;;;;35.75;25.48;;;5.90;97.40;;;;;;2087344;28;20111;-80
2021/03/08 01:57:06;;;;;;;35.75;25.52;;;5.90;97.40;;;;;;2087868;28;20029;-79
2021/03/08 01:58:07;;;;;;;30.88;23.83;;;6.00;97.40;;;;;;2087300;28;20025;-79
2021/03/08 01:59:08;;;;;;;35.83;25.10;;;6.00;97.40;;;;;;2079406;28;20550;-79
2021/03/08 02:00:10;;;;;;;36.95;25.05;;;6.00;97.40;;;;;;2079173;28;20025;-79
2021/03/08 02:01:10;;;;;;;30.63;24.08;;;6.00;97.40;;;;;;2087619;28;20063;-79
2021/03/08 02:02:14;;;;;;;35.80;26.73;;;6.00;97.40;;;;;;2084449;28;20025;-79
2021/03/08 02:03:14;;;;;;;33.45;24.80;;;6.00;97.40;;;;;;2079179;28;20407;-79
2021/03/08 02:04:15;;;;;;;35.80;24.17;;;6.00;97.40;;;;;;2079686;28;20025;-79
2021/03/08 02:05:17;;;;;;;32.83;24.25;;;6.00;97.30;;;;;;2079485;28;20021;-80
2021/03/08 02:06:18;;;;;;;33.17;25.05;;;6.00;97.30;;;;;;2079420;28;20113;-80
2021/03/08 02:07:19;;;;;;;32.55;24.17;;;6.00;97.30;;;;;;2079482;28;20412;-79
2021/03/08 02:08:22;;;;;;;32.40;24.05;;;6.00;97.30;;;;;;2079426;28;20140;-80
2021/03/08 02:09:22;;;;;;;34.22;24.80;;;6.00;97.30;;;;;;2083712;28;20030;-79
2021/03/08 02:10:26;;;;;;;32.95;23.77;;;6.00;97.40;;;;;;2079340;28;20116;-80
2021/03/08 02:11:26;;;;;;;35.08;25.55;;;6.00;97.50;;;;;;2072101;28;20022;-79
2021/03/08 02:12:48;;;;;;;31.55;24.05;;;6.00;97.50;;;;;;2074414;28;20093;-79
2021/03/08 02:14:16;;;;;;;32.17;23.88;;;6.00;97.80;;;;;;2083903;28;20025;-80
2021/03/08 02:15:24;;;;;;;33.97;23.75;;;6.00;97.50;;;;;;2085169;28;20032;-78
2021/03/08 02:16:46;;;;;;;33.63;23.85;;;6.00;97.80;;;;;;2081941;28;20034;-80
2021/03/08 02:18:12;;;;;;;34.45;24.27;;;6.00;97.90;;;;;;2085505;28;20430;-79
2021/03/08 02:19:28;;;;;;;34.08;23.23;;;5.90;98.10;;;;;;2076628;28;20396;-80
2021/03/08 02:21:05;;;;;;;36.92;26.27;;;5.90;97.80;;;;;;2073962;28;20049;-79
2021/03/08 02:22:18;;;;;;;34.72;24.35;;;5.90;98.20;;;;;;2070779;28;20017;-78
2021/03/08 02:23:21;;;;;;;34.45;25.00;;;5.90;97.90;;;;;;2081854;28;20577;-79
2021/03/08 02:24:55;;;;;;;35.65;25.17;;;5.90;97.90;;;;;;2081068;28;20093;-78
2021/03/08 02:26:33;;;;;;;35.38;25.10;;;5.90;98.30;;;;;;2081101;28;20080;-79
2021/03/08 02:28:07;;;;;;;31.75;23.33;;;5.80;98.30;;;;;;2081702;28;20491;-78
2021/03/08 02:29:40;;;;;;;34.58;24.30;;;5.90;98.30;;;;;;2077554;28;20125;-79
2021/03/08 02:30:49;;;;;;;34.92;25.50;;;5.80;98.30;;;;;;2076387;28;20029;-79
2021/03/08 02:31:51;;;;;;;32.17;24.33;;;5.80;98.40;;;;;;2069172;28;20424;-79
2021/03/08 02:32:54;;;;;;;33.92;24.48;;;5.80;98.10;;;;;;2081250;28;20292;-80
2021/03/08 02:34:00;;;;;;;33.85;24.90;;;5.80;98.20;;;;;;2081024;28;20036;-79
2021/03/08 02:35:07;;;;;;;33.70;23.23;;;5.80;98.20;;;;;;2073857;28;20022;-78
2021/03/08 02:36:09;;;;;;;33.13;25.67;;;5.90;98.20;;;;;;2072790;28;20109;-79
2021/03/08 02:37:20;;;;;;;37.90;25.08;;;5.80;98.00;;;;;;2079879;28;20033;-79
2021/03/08 02:38:26;;;;;;;;;;;5.90;98.30;;;;;;2090477;28;20021;-79
2021/03/08 02:39:30;;;;;;;35.83;25.25;;;5.80;98.90;;;;;;2081647;28;20366;-79
2021/03/08 02:40:39;;;;;;;37.42;25.58;;;5.80;98.20;;;;;;2073137;28;20025;-80
2021/03/08 02:41:42;;;;;;;40.47;25.35;;;5.80;98.30;;;;;;2069159;28;20496;-80
2021/03/08 02:42:50;;;;;;;40.95;25.90;;;5.80;98.20;;;;;;2064673;28;20411;-79
2021/03/08 02:44:09;;;;;;;34.78;25.60;;;5.90;98.30;;;;;;2072671;28;20465;-79
2021/03/08 02:45:13;;;;;;;34.72;26.10;;;5.90;98.40;;;;;;2072931;28;20041;-80
2021/03/08 02:46:21;;;;;;;33.67;25.55;;;5.80;98.10;;;;;;2074212;28;20054;-79
2021/03/08 02:47:24;;;;;;;32.92;25.05;;;5.90;98.20;;;;;;2081556;28;20026;-79
2021/03/08 02:48:27;;;;;;;37.70;25.85;;;5.80;98.10;;;;;;2088649;28;20029;-79
2021/03/08 02:49:29;;;;;;;35.65;26.23;;;5.90;98.10;;;;;;2088833;28;20119;-79
2021/03/08 02:50:34;;;;;;;35.90;26.08;;;5.90;98.10;;;;;;2088952;28;20555;-79
2021/03/08 02:51:41;;;;;;;30.40;22.88;;;5.90;98.10;;;;;;2078586;28;20490;-79
2021/03/08 02:52:57;;;;;;;35.08;24.33;;;5.90;98.00;;;;;;2081276;28;20529;-80
2021/03/08 02:54:01;;;;;;;34.58;24.27;;;5.90;98.10;;;;;;2080679;28;20033;-79
2021/03/08 02:55:06;;;;;;;33.72;24.08;;;5.90;97.90;;;;;;2080180;28;20036;-79
2021/03/08 02:56:19;;;;;;;30.52;23.27;;;5.90;98.00;;;;;;2073190;28;20026;-79
2021/03/08 02:57:25;;;;;;;35.85;25.20;;;5.90;98.10;;;;;;2080297;28;20475;-80
2021/03/08 02:58:30;;;;;;;31.58;24.38;;;5.90;98.00;;;;;;2088669;28;20487;-80
2021/03/08 02:59:36;;;;;;;36.47;26.48;;;5.90;97.90;;;;;;2084021;28;20120;-79
2021/03/08 03:00:38;;;;;;;36.63;26.20;;;5.90;97.80;;;;;;2073589;28;20025;-79
2021/03/08 03:01:41;;;;;;;33.85;25.25;;;5.90;97.80;;;;;;2069439;28;20157;-78
2021/03/08 03:02:44;;;;;;;37.55;26.35;;;5.90;97.70;;;;;;2069804;28;20078;-78
2021/03/08 03:03:49;;;;;;;35.00;23.27;;;5.90;97.70;;;;;;2077907;28;20391;-79
2021/03/08 03:04:50;;;;;;;35.13;25.77;;;5.90;97.60;;;;;;2084786;28;20017;-79
2021/03/08 03:05:54;;;;;;;31.70;23.10;;;5.90;97.60;;;;;;2083205;28;20028;-78
2021/03/08 03:06:55;;;;;;;34.75;24.05;;;5.90;97.50;;;;;;2085786;28;20068;-78
2021/03/08 03:07:58;;;;;;;36.35;25.25;;;5.90;97.40;;;;;;2091524;28;20453;-79
2021/03/08 03:09:03;;;;;;;35.67;24.38;;;5.90;97.50;;;;;;2093598;28;20102;-78
2021/03/08 03:10:06;;;;;;;34.70;25.92;;;5.90;97.50;;;;;;2086510;28;20030;-78
2021/03/08 03:11:08;;;;;;;34.72;26.48;;;5.90;97.60;;;;;;2088400;28;20271;-79
2021/03/08 03:12:11;;;;;;;35.63;25.38;;;5.90;97.60;;;;;;2085735;28;20029;-79
2021/03/08 03:13:12;;;;;;;35.58;24.35;;;5.90;97.70;;;;;;2086022;28;20499;-78
2021/03/08 03:14:14;;;;;;;42.88;25.52;;;5.90;97.60;;;;;;2082292;28;20029;-79
2021/03/08 03:15:15;;;;;;;38.40;27.65;;;5.90;97.60;;;;;;2093835;28;20376;-79
2021/03/08 03:16:17;;;;;;;34.67;25.45;;;5.90;97.70;;;;;;2085646;28;20037;-78
2021/03/08 03:17:19;;;;;;;33.97;25.27;;;5.80;97.60;;;;;;2087894;28;20079;-78
2021/03/08 03:18:21;;;;;;;35.65;25.98;;;5.80;97.60;;;;;;2085554;28;20109;-78
2021/03/08 03:19:23;;;;;;;32.78;23.75;;;5.80;97.60;;;;;;2093885;28;20024;-79
2021/03/08 03:20:25;;;;;;;34.97;25.52;;;5.80;97.60;;;;;;2092084;28;20037;-79
2021/03/08 03:21:31;;;;;;;33.25;24.55;;;5.90;97.50;;;;;;2080639;28;20026;-78
2021/03/08 03:22:32;;;;;;;36.60;24.60;;;5.80;97.60;;;;;;2081131;28;20524;-78
2021/03/08 03:23:35;;;;;;;34.80;26.08;;;5.80;97.60;;;;;;2093062;28;20017;-79
2021/03/08 03:24:37;;;;;;;40.22;27.23;;;5.80;97.70;;;;;;2085891;28;20025;-79
2021/03/08 03:25:40;;;;;;;35.40;26.58;;;5.80;97.80;;;;;;2089310;28;20059;-78
2021/03/08 03:26:42;;;;;;;38.65;27.00;;;5.80;97.90;;;;;;2085748;28;20104;-78
2021/03/08 03:27:45;;;;;;;40.38;26.23;;;5.80;98.00;;;;;;2077542;28;20053;-78
2021/03/08 03:28:46;;;;;;;32.78;23.92;;;5.80;98.10;;;;;;2083888;28;20032;-78
2021/03/08 03:29:48;;;;;;;36.90;27.10;;;5.80;98.20;;;;;;2086253;28;20029;-79
2021/03/08 03:30:50;;;;;;;33.15;24.27;;;5.80;98.20;;;;;;2086346;28;20479;-78
2021/03/08 03:31:51;;;;;;;41.60;26.70;;;5.80;97.90;;;;;;2077439;28;20018;-78
2021/03/08 03:32:52;;;;;;;40.15;26.92;;;5.80;98.00;;;;;;2085472;28;20073;-78
2021/03/08 03:33:55;;;;;;;45.40;26.90;;;5.80;98.20;;;;;;2090270;28;20104;-78
2021/03/08 03:34:56;;;;;;;40.65;27.10;;;5.80;98.20;;;;;;2093148;28;20024;-79
2021/03/08 03:35:58;;;;;;;39.00;26.67;;;5.80;98.20;;;;;;2085483;28;20029;-78
2021/03/08 03:37:00;;;;;;;38.00;27.45;;;5.80;98.30;;;;;;2089377;28;20032;-79
2021/03/08 03:38:02;;;;;;;39.75;28.30;;;5.80;98.30;;;;;;2093620;28;20049;-78
2021/03/08 03:39:09;;;;;;;36.53;26.30;;;5.80;98.80;;;;;;2093768;28;20460;-78
2021/03/08 03:40:14;;;;;;;40.17;25.67;;;5.80;98.70;;;;;;2086486;28;20025;-79
2021/03/08 03:41:15;;;;;;;38.53;26.98;;;5.80;98.60;;;;;;2093592;28;20028;-79
2021/03/08 03:42:18;;;;;;;37.42;26.10;;;5.70;98.60;;;;;;2085808;28;20048;-78
2021/03/08 03:43:20;;;;;;;39.47;27.83;;;5.70;98.70;;;;;;2085861;28;20060;-79
2021/03/08 03:44:22;;;;;;;39.75;28.50;;;5.70;99.00;;;;;;2077902;28;20116;-78
2021/03/08 03:45:24;;;;;;;38.83;28.75;;;5.80;98.90;;;;;;2085875;28;20025;-78
2021/03/08 03:46:24;;;;;;;40.42;28.23;;;5.80;99.00;;;;;;2087534;28;20025;-78
2021/03/08 03:47:25;;;;;;;37.05;28.05;;;5.70;99.10;;;;;;2085529;28;20037;-78
2021/03/08 03:48:26;;;;;;;32.25;22.98;;;5.80;99.00;;;;;;2079986;28;20022;-78
2021/03/08 03:49:27;;;;;;;34.75;27.33;;;5.80;98.70;;;;;;2087401;28;20117;-78
2021/03/08 03:50:28;;;;;;;39.25;28.30;;;5.80;98.80;;;;;;2086418;28;20025;-78
2021/03/08 03:51:29;;;;;;;40.10;27.20;;;5.70;98.90;;;;;;2081721;28;20102;-79
2021/03/08 03:52:30;;;;;;;43.30;28.15;;;5.80;99.00;;;;;;2086662;28;20026;-78
2021/03/08 03:53:30;;;;;;;40.22;29.40;;;5.80;99.00;;;;;;2092902;28;20025;-78
2021/03/08 03:54:31;;;;;;;39.38;28.63;;;5.80;99.10;;;;;;2094482;28;20033;-78
2021/03/08 03:55:32;;;;;;;34.65;26.55;;;5.80;99.20;;;;;;2086128;28;20033;-78
2021/03/08 03:56:34;;;;;;;40.05;27.90;;;5.80;99.30;;;;;;2093742;28;20025;-79
2021/03/08 03:57:52;;;;;;;36.38;25.92;;;5.70;99.40;;;;;;2093298;28;20021;-78
2021/03/08 03:59:01;;;;;;;38.20;28.73;;;5.70;99.40;;;;;;2085475;28;20033;-79
2021/03/08 04:00:06;;;;;;;43.63;27.40;;;5.70;99.60;;;;;;2087106;28;20527;-78
2021/03/08 04:01:10;;;;;;;41.65;27.95;;;5.70;99.60;;;;;;2089844;28;20021;-78
2021/03/08 04:02:31;;;;;;;41.50;28.13;;;5.70;99.70;;;;;;2085200;28;20025;-79
2021/03/08 04:03:43;;;;;;;38.80;29.05;;;5.70;99.90;;;;;;2072555;28;20022;-78
2021/03/08 04:05:00;;;;;;;38.88;28.45;;;5.70;99.90;;;;;;2085635;28;20026;-79
2021/03/08 04:06:05;;;;;;;41.80;27.92;;;5.70;99.90;;;;;;2089348;28;20025;-78
2021/03/08 04:07:08;;;;;;;41.13;27.95;;;5.70;99.90;;;;;;2086320;28;20465;-78
2021/03/08 04:08:11;;;;;;;38.25;28.10;;;5.70;99.90;;;;;;2085575;28;20041;-79
2021/03/08 04:09:13;;;;;;;39.15;28.38;;;5.70;99.90;;;;;;2077861;28;20026;-79
2021/03/08 04:10:14;;;;;;;41.85;30.67;;;5.70;99.90;;;;;;2086192;28;20032;-78
2021/03/08 04:11:16;;;;;;;35.50;27.02;;;5.70;99.90;;;;;;2092610;28;20086;-78
2021/03/08 04:12:20;;;;;;;43.83;28.73;;;5.70;99.90;;;;;;2091454;28;20021;-78
2021/03/08 04:13:29;;;;;;;39.30;28.67;;;5.70;99.90;;;;;;2074068;28;20022;-79
2021/03/08 04:14:33;;;;;;;46.50;28.13;;;5.70;99.90;;;;;;2079529;28;20480;-79
2021/03/08 04:15:34;;;;;;;41.45;29.55;;;5.70;99.90;;;;;;2080613;28;20032;-79
2021/03/08 04:16:40;;;;;;;39.45;28.63;;;5.70;99.90;;;;;;2080518;28;20083;-79
2021/03/08 04:17:41;;;;;;;36.40;27.02;;;5.70;99.90;;;;;;2072561;28;20494;-79
2021/03/08 04:18:43;;;;;;;38.63;27.65;;;5.70;99.90;;;;;;2080632;28;20022;-79
2021/03/08 04:19:45;;;;;;;38.00;28.30;;;5.70;99.90;;;;;;2080657;28;20097;-79
2021/03/08 04:20:47;;;;;;;41.17;29.10;;;5.70;99.90;;;;;;2080405;28;20026;-79
2021/03/08 04:21:51;;;;;;;39.83;28.58;;;5.70;99.90;;;;;;2076176;28;20018;-79
2021/03/08 04:22:54;;;;;;;41.75;28.65;;;5.70;99.90;;;;;;2094062;28;20506;-79
2021/03/08 04:23:56;;;;;;;40.40;28.20;;;5.70;99.90;;;;;;2089327;28;20040;-79
2021/03/08 04:24:59;;;;;;;37.70;26.30;;;5.70;99.90;;;;;;2085909;28;20029;-82
2021/03/08 04:26:01;;;;;;;39.15;27.58;;;5.70;99.90;;;;;;2071155;28;20030;-81
2021/03/08 04:27:05;;;;;;;39.50;27.10;;;5.70;99.90;;;;;;2076924;28;20033;-83
2021/03/08 04:28:08;;;;;;;40.30;27.25;;;5.70;99.90;;;;;;2086155;28;20041;-79
2021/03/08 04:29:09;;;;;;;40.10;28.67;;;5.70;99.90;;;;;;2094935;28;20032;-83
2021/03/08 04:30:11;;;;;;;41.33;29.13;;;5.70;99.90;;;;;;2098689;28;20077;-79
2021/03/08 04:31:13;;;;;;;41.28;28.63;;;5.70;99.90;;;;;;2086397;28;20025;-79
2021/03/08 04:32:15;;;;;;;41.13;29.27;;;5.70;99.90;;;;;;2073748;28;20027;-80
2021/03/08 04:33:17;;;;;;;40.33;28.42;;;5.70;99.90;;;;;;2070824;28;20050;-78
2021/03/08 04:34:19;;;;;;;43.17;29.77;;;5.70;99.90;;;;;;2082573;28;20025;-79
2021/03/08 04:35:23;;;;;;;43.08;30.33;;;5.70;99.90;;;;;;2071707;28;20022;-79
2021/03/08 04:36:24;;;;;;;43.65;29.17;;;5.70;99.90;;;;;;2079497;28;20037;-80
2021/03/08 04:37:27;;;;;;;42.65;28.08;;;5.70;99.90;;;;;;2079610;28;20026;-79
2021/03/08 04:38:29;;;;;;;41.47;28.90;;;5.70;99.90;;;;;;2079073;28;20025;-79
2021/03/08 04:39:33;;;;;;;42.80;28.63;;;5.70;99.90;;;;;;2072180;28;20376;-79
2021/03/08 04:40:34;;;;;;;39.80;28.80;;;5.70;99.90;;;;;;2072122;28;20543;-79
2021/03/08 04:41:35;;;;;;;41.03;29.05;;;5.70;99.90;;;;;;2071404;28;20033;-79
2021/03/08 04:42:38;;;;;;;43.08;29.10;;;5.70;99.90;;;;;;2072225;28;20026;-79
2021/03/08 04:43:39;;;;;;;40.58;29.02;;;5.70;99.90;;;;;;2086339;28;20147;-79
2021/03/08 04:44:45;;;;;;;38.13;28.75;;;5.70;99.90;;;;;;2088264;28;20025;-80
2021/03/08 04:45:46;;;;;;;42.42;28.58;;;5.70;99.90;;;;;;2088653;28;20025;-80
2021/03/08 04:46:49;;;;;;;43.45;28.88;;;5.70;99.90;;;;;;2094432;28;20566;-79
2021/03/08 04:47:51;;;;;;;41.47;29.83;;;5.70;99.90;;;;;;2093226;28;20028;-79
2021/03/08 04:48:53;;;;;;;39.88;28.38;;;5.70;99.90;;;;;;2093777;28;20406;-78
2021/03/08 04:49:56;;;;;;;42.67;29.05;;;5.70;99.90;;;;;;2089386;28;20029;-79
2021/03/08 04:50:57;;;;;;;43.65;28.33;;;5.70;99.90;;;;;;2085039;28;20022;-78
2021/03/08 04:51:59;;;;;;;41.33;29.40;;;5.70;99.90;;;;;;2085861;28;20357;-79
2021/03/08 04:53:01;;;;;;;43.05;28.98;;;5.70;99.90;;;;;;2089123;28;20475;-78
2021/03/08 04:54:04;;;;;;;42.35;28.42;;;5.70;99.90;;;;;;2085186;28;20018;-79
2021/03/08 04:55:09;;;;;;;40.72;28.88;;;5.70;99.90;;;;;;2091831;28;20092;-78
2021/03/08 04:56:10;;;;;;;42.22;29.42;;;5.70;99.90;;;;;;2082703;28;20076;-79
2021/03/08 04:57:16;;;;;;;44.47;29.42;;;5.70;99.90;;;;;;2085149;28;20116;-79
2021/03/08 04:58:16;;;;;;;42.10;29.90;;;5.70;99.90;;;;;;2084539;28;20021;-78
2021/03/08 04:59:17;;;;;;;43.97;30.30;;;5.70;99.90;;;;;;2086444;28;20044;-78
2021/03/08 05:00:19;;;;;;;42.75;28.70;;;5.70;99.90;;;;;;2093214;28;20021;-79
2021/03/08 05:01:23;;;;;;;41.08;28.08;;;5.70;99.90;;;;;;2093566;28;20028;-78
2021/03/08 05:02:25;;;;;;;43.67;28.80;;;5.70;99.90;;;;;;2093332;28;20032;-78
2021/03/08 05:03:27;;;;;;;45.15;28.55;;;5.70;99.90;;;;;;2084201;28;20089;-79
2021/03/08 05:04:30;;;;;;;39.92;28.38;;;5.70;99.90;;;;;;2085279;28;20029;-79
2021/03/08 05:05:32;;;;;;;40.88;28.80;;;5.70;99.90;;;;;;2077284;28;20029;-79
2021/03/08 05:06:37;;;;;;;38.20;28.95;;;5.70;99.90;;;;;;2092358;28;20022;-78
2021/03/08 05:07:41;;;;;;;41.67;28.38;;;5.70;99.90;;;;;;2093143;28;20392;-78
2021/03/08 05:08:43;;;;;;;41.58;28.23;;;5.70;99.90;;;;;;2090220;28;20033;-78
2021/03/08 05:09:45;;;;;;;44.45;28.77;;;5.70;99.90;;;;;;2075149;28;20033;-78
2021/03/08 05:10:47;;;;;;;37.80;28.13;;;5.70;99.90;;;;;;2084382;28;20102;-78
2021/03/08 05:11:51;;;;;;;40.50;26.95;;;5.70;99.90;;;;;;2091519;28;20029;-79
2021/03/08 05:12:53;;;;;;;43.63;29.08;;;5.70;99.90;;;;;;2085499;28;20569;-78
2021/03/08 05:13:54;;;;;;;42.08;28.38;;;5.70;99.90;;;;;;2077570;28;20264;-78
2021/03/08 05:14:57;;;;;;;44.03;29.70;;;5.80;99.90;;;;;;2091948;28;20025;-78
2021/03/08 05:16:00;;;;;;;41.47;29.13;;;5.70;99.90;;;;;;2079001;28;20026;-77
2021/03/08 05:17:02;;;;;;;47.95;28.92;;;5.80;99.90;;;;;;2083768;28;20512;-78
2021/03/08 05:18:04;;;;;;;43.88;29.13;;;5.70;99.90;;;;;;2084880;28;20096;-78
2021/03/08 05:19:05;;;;;;;42.95;28.88;;;5.80;99.90;;;;;;2084215;28;20025;-78
2021/03/08 05:20:09;;;;;;;40.70;28.15;;;5.80;99.90;;;;;;2076153;28;20022;-78
2021/03/08 05:21:13;;;;;;;41.97;28.25;;;5.80;99.90;;;;;;2091936;28;20064;-78
2021/03/08 05:22:15;;;;;;;39.28;28.73;;;5.80;99.90;;;;;;2084632;28;20099;-78
2021/03/08 05:23:16;;;;;;;48.00;30.85;;;5.80;99.90;;;;;;2092754;28;20108;-78
2021/03/08 05:24:17;;;;;;;45.92;30.05;;;5.80;99.90;;;;;;2092991;28;20475;-78
2021/03/08 05:25:20;;;;;;;42.97;28.20;;;5.80;99.90;;;;;;2093332;28;20041;-78
2021/03/08 05:26:20;;;;;;;39.63;29.17;;;5.80;99.90;;;;;;2084924;28;20028;-78